sensor_id;sensor_type;location;lat;lon;timestamp;pressure;altitude;pressure_sealevel;temperature;humidity
3668;BME280;24099;47.102;15.440;2023-03-04T00:01:04;97371.16;;;-0.06;100.00
3668;BME280;24099;47.102;15.440;2023-03-04T00:03:33;97372.75;;;-0.16;100.00
3668;BME280;24099;47.102;15.440;2023-03-04T00:06:03;97372.59;;;-0.02;100.00
3668;BME280;24099;47.102;15.440;2023-03-04T00:08:30;97367.75;;;-0.07;100.00
3668;BME280;24099;47.102;15.440;2023-03-04T00:10:58;97370.00;;;-0.26;100.00
3668;BME280;24099;47.102;15.440;2023-03-04T00:13:28;97361.44;;;-0.26;100.00
3668;BME280;24099;47.102;15.440;2023-03-04T00:15:56;97354.81;;;-0.30;100.00
3668;BME280;24099;47.102;15.440;2023-03-04T00:18:24;97368.78;;;-0.33;100.00
3668;BME280;24099;47.102;15.440;2023-03-04T00:20:53;97368.91;;;-0.35;100.00
3668;BME280;24099;47.102;15.440;2023-03-04T00:23:25;97364.66;;;-0.36;100.00
3668;BME280;24099;47.102;15.440;2023-03-04T00:25:53;97363.69;;;-0.46;100.00
3668;BME280;24099;47.102;15.440;2023-03-04T00:28:21;97367.81;;;-0.43;100.00
3668;BME280;24099;47.102;15.440;2023-03-04T00:30:49;97371.34;;;-0.44;100.00
3668;BME280;24099;47.102;15.440;2023-03-04T00:33:17;97368.19;;;-0.60;100.00
3668;BME280;24099;47.102;15.440;2023-03-04T00:35:45;97371.09;;;-0.65;100.00
3668;BME280;24099;47.102;15.440;2023-03-04T00:38:14;97370.09;;;-0.51;100.00
3668;BME280;24099;47.102;15.440;2023-03-04T00:40:43;97370.63;;;-0.59;100.00
3668;BME280;24099;47.102;15.440;2023-03-04T00:43:12;97370.97;;;-0.63;100.00
3668;BME280;24099;47.102;15.440;2023-03-04T00:45:41;97371.56;;;-0.60;100.00
3668;BME280;24099;47.102;15.440;2023-03-04T00:48:11;97363.94;;;-0.61;100.00
3668;BME280;24099;47.102;15.440;2023-03-04T00:50:39;97367.22;;;-0.59;100.00
3668;BME280;24099;47.102;15.440;2023-03-04T00:53:08;97364.78;;;-0.61;100.00
3668;BME280;24099;47.102;15.440;2023-03-04T00:55:38;97361.38;;;-0.61;100.00
3668;BME280;24099;47.102;15.440;2023-03-04T00:58:06;97364.25;;;-0.66;100.00
3668;BME280;24099;47.102;15.440;2023-03-04T01:00:43;97366.53;;;-0.74;100.00
3668;BME280;24099;47.102;15.440;2023-03-04T01:03:16;97358.38;;;-0.68;100.00
3668;BME280;24099;47.102;15.440;2023-03-04T01:05:45;97359.81;;;-0.64;100.00
3668;BME280;24099;47.102;15.440;2023-03-04T01:08:13;97359.00;;;-0.64;100.00
3668;BME280;24099;47.102;15.440;2023-03-04T01:10:42;97355.19;;;-0.72;100.00
3668;BME280;24099;47.102;15.440;2023-03-04T01:13:10;97348.91;;;-0.80;100.00
3668;BME280;24099;47.102;15.440;2023-03-04T01:15:38;97343.09;;;-0.71;100.00
3668;BME280;24099;47.102;15.440;2023-03-04T01:18:14;97351.91;;;-0.86;100.00
3668;BME280;24099;47.102;15.440;2023-03-04T01:20:42;97341.78;;;-0.89;100.00
3668;BME280;24099;47.102;15.440;2023-03-04T01:23:10;97345.00;;;-0.86;100.00
3668;BME280;24099;47.102;15.440;2023-03-04T01:25:38;97333.16;;;-0.77;100.00
3668;BME280;24099;47.102;15.440;2023-03-04T01:28:08;97335.69;;;-0.88;100.00
3668;BME280;24099;47.102;15.440;2023-03-04T01:30:36;97332.59;;;-0.93;100.00
3668;BME280;24099;47.102;15.440;2023-03-04T01:33:04;97333.41;;;-0.93;100.00
3668;BME280;24099;47.102;15.440;2023-03-04T01:35:36;97335.19;;;-0.93;100.00
3668;BME280;24099;47.102;15.440;2023-03-04T01:41:26;97328.28;;;-1.06;100.00
3668;BME280;24099;47.102;15.440;2023-03-04T01:43:57;97326.94;;;-1.11;100.00
3668;BME280;24099;47.102;15.440;2023-03-04T01:46:30;97333.25;;;-1.02;100.00
3668;BME280;24099;47.102;15.440;2023-03-04T01:48:58;97323.03;;;-1.04;100.00
3668;BME280;24099;47.102;15.440;2023-03-04T01:51:26;97319.41;;;-1.01;100.00
3668;BME280;24099;47.102;15.440;2023-03-04T01:53:54;97323.03;;;-1.04;100.00
3668;BME280;24099;47.102;15.440;2023-03-04T01:56:24;97323.44;;;-1.10;100.00
3668;BME280;24099;47.102;15.440;2023-03-04T01:59:13;97318.88;;;-1.07;100.00
3668;BME280;24099;47.102;15.440;2023-03-04T02:01:44;97308.88;;;-1.11;100.00
3668;BME280;24099;47.102;15.440;2023-03-04T02:04:13;97310.53;;;-1.10;100.00
3668;BME280;24099;47.102;15.440;2023-03-04T02:06:42;97308.16;;;-1.13;100.00
3668;BME280;24099;47.102;15.440;2023-03-04T02:09:18;97307.00;;;-1.09;100.00
3668;BME280;24099;47.102;15.440;2023-03-04T02:11:49;97301.22;;;-1.13;100.00
3668;BME280;24099;47.102;15.440;2023-03-04T02:14:20;97299.25;;;-1.09;100.00
3668;BME280;24099;47.102;15.440;2023-03-04T02:16:51;97293.28;;;-1.10;100.00
3668;BME280;24099;47.102;15.440;2023-03-04T02:19:28;97294.44;;;-1.26;100.00
3668;BME280;24099;47.102;15.440;2023-03-04T02:21:59;97293.41;;;-1.24;100.00
3668;BME280;24099;47.102;15.440;2023-03-04T02:24:32;97297.09;;;-1.15;100.00
3668;BME280;24099;47.102;15.440;2023-03-04T02:27:03;97288.44;;;-1.14;100.00
3668;BME280;24099;47.102;15.440;2023-03-04T02:29:32;97287.13;;;-1.32;100.00
3668;BME280;24099;47.102;15.440;2023-03-04T02:31:59;97288.72;;;-1.06;100.00
3668;BME280;24099;47.102;15.440;2023-03-04T02:34:29;97289.81;;;-0.85;100.00
3668;BME280;24099;47.102;15.440;2023-03-04T02:36:59;97284.91;;;-1.13;100.00
3668;BME280;24099;47.102;15.440;2023-03-04T02:39:32;97270.88;;;-1.09;100.00
3668;BME280;24099;47.102;15.440;2023-03-04T02:42:18;97270.66;;;-1.19;100.00
3668;BME280;24099;47.102;15.440;2023-03-04T02:44:46;97269.81;;;-1.07;100.00
3668;BME280;24099;47.102;15.440;2023-03-04T02:47:18;97259.91;;;-1.00;100.00
3668;BME280;24099;47.102;15.440;2023-03-04T02:49:47;97264.47;;;-1.16;100.00
3668;BME280;24099;47.102;15.440;2023-03-04T02:52:18;97258.50;;;-1.29;100.00
3668;BME280;24099;47.102;15.440;2023-03-04T02:54:46;97256.03;;;-1.31;100.00
3668;BME280;24099;47.102;15.440;2023-03-04T02:57:17;97255.56;;;-1.12;100.00
3668;BME280;24099;47.102;15.440;2023-03-04T02:59:49;97246.59;;;-1.19;100.00
3668;BME280;24099;47.102;15.440;2023-03-04T03:02:21;97252.13;;;-1.36;100.00
3668;BME280;24099;47.102;15.440;2023-03-04T03:04:49;97254.91;;;-1.40;100.00
3668;BME280;24099;47.102;15.440;2023-03-04T03:07:18;97253.34;;;-1.29;100.00
3668;BME280;24099;47.102;15.440;2023-03-04T03:09:47;97246.47;;;-1.42;100.00
3668;BME280;24099;47.102;15.440;2023-03-04T03:12:16;97246.47;;;-1.42;100.00
3668;BME280;24099;47.102;15.440;2023-03-04T03:14:45;97241.09;;;-1.51;100.00
3668;BME280;24099;47.102;15.440;2023-03-04T03:17:17;97239.34;;;-1.51;100.00
3668;BME280;24099;47.102;15.440;2023-03-04T03:19:45;97240.91;;;-1.48;100.00
3668;BME280;24099;47.102;15.440;2023-03-04T03:22:14;97244.88;;;-1.31;100.00
3668;BME280;24099;47.102;15.440;2023-03-04T03:24:42;97246.78;;;-1.46;100.00
3668;BME280;24099;47.102;15.440;2023-03-04T03:27:09;97244.81;;;-1.55;100.00
3668;BME280;24099;47.102;15.440;2023-03-04T03:29:40;97243.28;;;-1.45;100.00
3668;BME280;24099;47.102;15.440;2023-03-04T03:32:08;97239.66;;;-1.55;100.00
3668;BME280;24099;47.102;15.440;2023-03-04T03:34:36;97237.91;;;-1.55;100.00
3668;BME280;24099;47.102;15.440;2023-03-04T03:37:04;97233.97;;;-1.48;100.00
3668;BME280;24099;47.102;15.440;2023-03-04T03:39:31;97236.56;;;-1.48;100.00
3668;BME280;24099;47.102;15.440;2023-03-04T03:42:04;97231.59;;;-1.51;100.00
3668;BME280;24099;47.102;15.440;2023-03-04T03:44:33;97233.25;;;-1.50;100.00
3668;BME280;24099;47.102;15.440;2023-03-04T03:47:03;97235.13;;;-1.52;100.00
3668;BME280;24099;47.102;15.440;2023-03-04T03:49:31;97226.44;;;-1.51;100.00
3668;BME280;24099;47.102;15.440;2023-03-04T03:52:08;97223.28;;;-1.67;100.00
3668;BME280;24099;47.102;15.440;2023-03-04T03:54:48;97224.50;;;-1.73;100.00
3668;BME280;24099;47.102;15.440;2023-03-04T03:57:19;97223.91;;;-1.63;100.00
3668;BME280;24099;47.102;15.440;2023-03-04T03:59:47;97219.31;;;-1.60;100.00
3668;BME280;24099;47.102;15.440;2023-03-04T04:02:16;97213.38;;;-1.60;100.00
3668;BME280;24099;47.102;15.440;2023-03-04T04:04:50;97219.47;;;-1.74;100.00
3668;BME280;24099;47.102;15.440;2023-03-04T04:07:18;97212.75;;;-1.77;100.00
3668;BME280;24099;47.102;15.440;2023-03-04T04:09:48;97223.59;;;-1.71;100.00
3668;BME280;24099;47.102;15.440;2023-03-04T04:12:17;97218.94;;;-1.79;100.00
3668;BME280;24099;47.102;15.440;2023-03-04T04:14:45;97216.06;;;-1.75;100.00
3668;BME280;24099;47.102;15.440;2023-03-04T04:17:14;97214.00;;;-1.69;100.00
3668;BME280;24099;47.102;15.440;2023-03-04T04:19:44;97210.69;;;-1.71;100.00
3668;BME280;24099;47.102;15.440;2023-03-04T04:22:17;97219.66;;;-1.77;100.00
3668;BME280;24099;47.102;15.440;2023-03-04T04:24:46;97212.03;;;-1.79;100.00
3668;BME280;24099;47.102;15.440;2023-03-04T04:27:15;97208.84;;;-1.82;100.00
3668;BME280;24099;47.102;15.440;2023-03-04T04:29:42;97205.84;;;-1.76;100.00
3668;BME280;24099;47.102;15.440;2023-03-04T04:32:10;97213.28;;;-1.84;100.00
3668;BME280;24099;47.102;15.440;2023-03-04T04:34:40;97212.25;;;-1.94;100.00
3668;BME280;24099;47.102;15.440;2023-03-04T04:37:08;97215.03;;;-1.85;100.00
3668;BME280;24099;47.102;15.440;2023-03-04T04:39:36;97212.97;;;-1.92;100.00
3668;BME280;24099;47.102;15.440;2023-03-04T04:42:05;97208.00;;;-1.95;100.00
3668;BME280;24099;47.102;15.440;2023-03-04T04:44:33;97212.97;;;-1.92;100.00
3668;BME280;24099;47.102;15.440;2023-03-04T04:47:01;97213.59;;;-1.89;100.00
3668;BME280;24099;47.102;15.440;2023-03-04T04:49:29;97203.91;;;-1.85;100.00
3668;BME280;24099;47.102;15.440;2023-03-04T04:51:58;97203.47;;;-1.79;100.00
3668;BME280;24099;47.102;15.440;2023-03-04T04:54:26;97208.44;;;-1.89;100.00
3668;BME280;24099;47.102;15.440;2023-03-04T04:56:57;97208.94;;;-1.71;100.00
3668;BME280;24099;47.102;15.440;2023-03-04T04:59:25;97209.44;;;-1.79;100.00
3668;BME280;24099;47.102;15.440;2023-03-04T05:01:53;97206.47;;;-1.85;100.00
3668;BME280;24099;47.102;15.440;2023-03-04T05:04:23;97196.06;;;-1.84;100.00
3668;BME280;24099;47.102;15.440;2023-03-04T05:06:51;97199.75;;;-1.75;100.00
3668;BME280;24099;47.102;15.440;2023-03-04T05:09:29;97204.91;;;-1.75;100.00
3668;BME280;24099;47.102;15.440;2023-03-04T05:11:57;97194.38;;;-1.72;100.00
3668;BME280;24099;47.102;15.440;2023-03-04T05:14:25;97203.47;;;-1.92;100.00
3668;BME280;24099;47.102;15.440;2023-03-04T05:16:53;97198.63;;;-1.84;100.00
3668;BME280;24099;47.102;15.440;2023-03-04T05:19:24;97192.53;;;-1.95;100.00
3668;BME280;24099;47.102;15.440;2023-03-04T05:21:53;97194.22;;;-2.07;100.00
3668;BME280;24099;47.102;15.440;2023-03-04T05:24:42;97197.31;;;-2.02;100.00
3668;BME280;24099;47.102;15.440;2023-03-04T05:27:54;97194.72;;;-1.89;100.00
3668;BME280;24099;47.102;15.440;2023-03-04T05:30:25;97192.88;;;-2.00;100.00
3668;BME280;24099;47.102;15.440;2023-03-04T05:32:56;97190.50;;;-1.90;100.00
3668;BME280;24099;47.102;15.440;2023-03-04T05:35:55;97189.88;;;-2.06;100.00
3668;BME280;24099;47.102;15.440;2023-03-04T05:38:54;97193.47;;;-1.96;100.00
3668;BME280;24099;47.102;15.440;2023-03-04T05:41:23;97189.31;;;-1.74;100.00
3668;BME280;24099;47.102;15.440;2023-03-04T05:44:04;97189.25;;;-1.85;100.00
3668;BME280;24099;47.102;15.440;2023-03-04T05:46:32;97192.34;;;-1.92;100.00
3668;BME280;24099;47.102;15.440;2023-03-04T05:49:01;97186.88;;;-1.88;100.00
3668;BME280;24099;47.102;15.440;2023-03-04T05:51:49;97183.88;;;-1.94;100.00
3668;BME280;24099;47.102;15.440;2023-03-04T05:54:55;97198.03;;;-1.87;100.00
3668;BME280;24099;47.102;15.440;2023-03-04T05:57:24;97188.84;;;-1.91;100.00
3668;BME280;24099;47.102;15.440;2023-03-04T05:59:55;97187.91;;;-1.90;100.00
3668;BME280;24099;47.102;15.440;2023-03-04T06:02:24;97190.69;;;-1.93;100.00
3668;BME280;24099;47.102;15.440;2023-03-04T06:04:52;97193.75;;;-1.76;100.00
3668;BME280;24099;47.102;15.440;2023-03-04T06:07:22;97203.88;;;-1.73;100.00
3668;BME280;24099;47.102;15.440;2023-03-04T06:10:22;97205.94;;;-1.78;100.00
3668;BME280;24099;47.102;15.440;2023-03-04T06:12:59;97200.28;;;-1.83;100.00
3668;BME280;24099;47.102;15.440;2023-03-04T06:15:52;97204.94;;;-1.88;100.00
3668;BME280;24099;47.102;15.440;2023-03-04T06:18:27;97207.81;;;-1.67;100.00
3668;BME280;24099;47.102;15.440;2023-03-04T06:21:09;97208.06;;;-1.59;100.00
3668;BME280;24099;47.102;15.440;2023-03-04T06:23:37;97211.72;;;-1.74;100.00
3668;BME280;24099;47.102;15.440;2023-03-04T06:26:06;97209.97;;;-1.61;100.00
3668;BME280;24099;47.102;15.440;2023-03-04T06:28:42;97211.09;;;-1.65;100.00
3668;BME280;24099;47.102;15.440;2023-03-04T06:31:10;97208.06;;;-1.59;100.00
3668;BME280;24099;47.102;15.440;2023-03-04T06:33:38;97213.84;;;-1.55;100.00
3668;BME280;24099;47.102;15.440;2023-03-04T06:36:06;97218.31;;;-1.70;100.00
3668;BME280;24099;47.102;15.440;2023-03-04T06:38:48;97221.50;;;-1.54;100.00
3668;BME280;24099;47.102;15.440;2023-03-04T06:41:23;97219.59;;;-1.39;100.00
3668;BME280;24099;47.102;15.440;2023-03-04T06:43:54;97218.59;;;-1.49;100.00
3668;BME280;24099;47.102;15.440;2023-03-04T06:46:48;97215.13;;;-1.61;100.00
3668;BME280;24099;47.102;15.440;2023-03-04T06:49:22;97218.59;;;-1.49;100.00
3668;BME280;24099;47.102;15.440;2023-03-04T06:51:53;97214.41;;;-1.26;100.00
3668;BME280;24099;47.102;15.440;2023-03-04T06:54:21;97214.94;;;-1.34;100.00
3668;BME280;24099;47.102;15.440;2023-03-04T06:56:52;97214.13;;;-1.34;100.00
3668;BME280;24099;47.102;15.440;2023-03-04T06:59:21;97213.69;;;-1.28;100.00
3668;BME280;24099;47.102;15.440;2023-03-04T07:01:54;97216.50;;;-1.31;100.00
3668;BME280;24099;47.102;15.440;2023-03-04T07:04:25;97216.19;;;-1.27;100.00
3668;BME280;24099;47.102;15.440;2023-03-04T07:10:15;97208.66;;;-1.06;100.00
3668;BME280;24099;47.102;15.440;2023-03-04T07:12:45;97206.41;;;-1.11;100.00
3668;BME280;24099;47.102;15.440;2023-03-04T07:15:31;97208.66;;;-1.06;100.00
3668;BME280;24099;47.102;15.440;2023-03-04T07:18:53;97199.72;;;-0.89;100.00
3668;BME280;24099;47.102;15.440;2023-03-04T07:21:21;97199.06;;;-0.80;100.00
3668;BME280;24099;47.102;15.440;2023-03-04T07:26:48;97200.25;;;-0.73;100.00
3668;BME280;24099;47.102;15.440;2023-03-04T07:29:28;97199.41;;;-0.50;100.00
3668;BME280;24099;47.102;15.440;2023-03-04T07:32:01;97198.13;;;-0.33;100.00
3668;BME280;24099;47.102;15.440;2023-03-04T07:34:31;97202.97;;;-0.28;100.00
3668;BME280;24099;47.102;15.440;2023-03-04T07:36:59;97199.72;;;0.03;100.00
3668;BME280;24099;47.102;15.440;2023-03-04T07:39:27;97200.56;;;0.15;100.00
3668;BME280;24099;47.102;15.440;2023-03-04T07:41:55;97204.56;;;0.30;100.00
3668;BME280;24099;47.102;15.440;2023-03-04T07:44:23;97199.16;;;0.44;100.00
3668;BME280;24099;47.102;15.440;2023-03-04T07:46:51;97191.56;;;0.97;100.00
3668;BME280;24099;47.102;15.440;2023-03-04T07:49:30;97190.50;;;0.99;100.00
3668;BME280;24099;47.102;15.440;2023-03-04T07:52:01;97182.00;;;0.97;100.00
3668;BME280;24099;47.102;15.440;2023-03-04T07:54:32;97189.97;;;1.06;100.00
3668;BME280;24099;47.102;15.440;2023-03-04T07:57:00;97170.56;;;1.32;100.00
3668;BME280;24099;47.102;15.440;2023-03-04T07:59:28;97178.28;;;1.85;100.00
3668;BME280;24099;47.102;15.440;2023-03-04T08:01:55;97172.78;;;2.69;100.00
3668;BME280;24099;47.102;15.440;2023-03-04T08:04:24;97155.47;;;2.89;100.00
3668;BME280;24099;47.102;15.440;2023-03-04T08:06:55;97145.94;;;2.50;100.00
3668;BME280;24099;47.102;15.440;2023-03-04T08:09:23;97136.59;;;2.78;100.00
3668;BME280;24099;47.102;15.440;2023-03-04T08:11:51;97128.91;;;2.86;100.00
3668;BME280;24099;47.102;15.440;2023-03-04T08:14:18;97120.72;;;3.38;100.00
3668;BME280;24099;47.102;15.440;2023-03-04T08:16:48;97110.19;;;3.96;100.00
3668;BME280;24099;47.102;15.440;2023-03-04T08:19:16;97087.88;;;3.94;100.00
3668;BME280;24099;47.102;15.440;2023-03-04T08:24:24;97088.28;;;3.89;100.00
3668;BME280;24099;47.102;15.440;2023-03-04T08:26:54;97086.50;;;3.90;100.00
3668;BME280;24099;47.102;15.440;2023-03-04T08:29:23;97079.72;;;4.06;100.00
3668;BME280;24099;47.102;15.440;2023-03-04T08:31:52;97069.81;;;4.65;100.00
3668;BME280;24099;47.102;15.440;2023-03-04T08:34:25;97066.31;;;4.92;100.00
3668;BME280;24099;47.102;15.440;2023-03-04T08:36:55;97054.66;;;5.22;100.00
3668;BME280;24099;47.102;15.440;2023-03-04T08:39:22;97048.50;;;5.74;100.00
3668;BME280;24099;47.102;15.440;2023-03-04T08:41:52;97048.78;;;5.89;100.00
3668;BME280;24099;47.102;15.440;2023-03-04T08:44:20;97042.19;;;6.69;100.00
3668;BME280;24099;47.102;15.440;2023-03-04T08:46:50;97037.72;;;5.95;100.00
3668;BME280;24099;47.102;15.440;2023-03-04T08:49:18;97033.56;;;6.77;100.00
3668;BME280;24099;47.102;15.440;2023-03-04T08:51:46;97029.25;;;6.60;100.00
3668;BME280;24099;47.102;15.440;2023-03-04T08:54:15;97020.47;;;6.85;100.00
3668;BME280;24099;47.102;15.440;2023-03-04T08:56:42;97028.00;;;7.20;100.00
3668;BME280;24099;47.102;15.440;2023-03-04T08:59:11;97028.00;;;7.04;100.00
3668;BME280;24099;47.102;15.440;2023-03-04T09:01:41;97026.03;;;6.74;100.00
3668;BME280;24099;47.102;15.440;2023-03-04T09:04:09;97020.16;;;6.96;100.00
3668;BME280;24099;47.102;15.440;2023-03-04T09:06:36;97014.41;;;7.25;100.00
3668;BME280;24099;47.102;15.440;2023-03-04T09:09:04;97021.13;;;7.36;100.00
3668;BME280;24099;47.102;15.440;2023-03-04T09:11:34;97009.00;;;7.43;100.00
3668;BME280;24099;47.102;15.440;2023-03-04T09:14:01;97007.16;;;7.76;100.00
3668;BME280;24099;47.102;15.440;2023-03-04T09:16:29;97000.97;;;8.08;100.00
3668;BME280;24099;47.102;15.440;2023-03-04T09:18:57;96995.47;;;8.34;100.00
3668;BME280;24099;47.102;15.440;2023-03-04T09:21:27;96993.97;;;8.62;100.00
3668;BME280;24099;47.102;15.440;2023-03-04T09:23:54;96984.47;;;8.84;100.00
3668;BME280;24099;47.102;15.440;2023-03-04T09:26:29;96993.94;;;9.16;100.00
3668;BME280;24099;47.102;15.440;2023-03-04T09:28:59;96987.34;;;9.35;100.00
3668;BME280;24099;47.102;15.440;2023-03-04T09:31:28;96980.53;;;9.40;100.00
3668;BME280;24099;47.102;15.440;2023-03-04T09:33:59;96983.75;;;10.09;100.00
3668;BME280;24099;47.102;15.440;2023-03-04T09:36:27;96977.97;;;9.99;100.00
3668;BME280;24099;47.102;15.440;2023-03-04T09:38:58;96975.44;;;9.76;100.00
3668;BME280;24099;47.102;15.440;2023-03-04T09:41:32;96980.56;;;10.14;100.00
3668;BME280;24099;47.102;15.440;2023-03-04T09:44:14;96977.59;;;10.53;100.00
3668;BME280;24099;47.102;15.440;2023-03-04T09:46:45;96972.00;;;10.77;100.00
3668;BME280;24099;47.102;15.440;2023-03-04T09:49:17;96970.28;;;10.69;100.00
3668;BME280;24099;47.102;15.440;2023-03-04T09:51:56;96973.72;;;10.49;100.00
3668;BME280;24099;47.102;15.440;2023-03-04T09:54:57;96967.22;;;10.66;100.00
3668;BME280;24099;47.102;15.440;2023-03-04T09:57:42;96961.03;;;11.23;100.00
3668;BME280;24099;47.102;15.440;2023-03-04T10:00:18;96963.41;;;10.68;100.00
3668;BME280;24099;47.102;15.440;2023-03-04T10:03:02;96962.34;;;11.33;100.00
3668;BME280;24099;47.102;15.440;2023-03-04T10:05:38;96958.47;;;11.64;97.15
3668;BME280;24099;47.102;15.440;2023-03-04T10:08:30;96954.66;;;11.66;99.20
3668;BME280;24099;47.102;15.440;2023-03-04T10:11:03;96953.88;;;11.72;99.37
3668;BME280;24099;47.102;15.440;2023-03-04T10:13:39;96938.03;;;12.07;93.69
3668;BME280;24099;47.102;15.440;2023-03-04T10:16:15;96940.53;;;12.15;91.96
3668;BME280;24099;47.102;15.440;2023-03-04T10:18:51;96938.13;;;11.51;93.18
3668;BME280;24099;47.102;15.440;2023-03-04T10:21:25;96935.19;;;11.39;96.03
3668;BME280;24099;47.102;15.440;2023-03-04T10:23:53;96929.41;;;12.33;96.51
3668;BME280;24099;47.102;15.440;2023-03-04T10:26:22;96922.25;;;12.20;92.90
3668;BME280;24099;47.102;15.440;2023-03-04T10:28:51;96912.19;;;12.50;90.54
3668;BME280;24099;47.102;15.440;2023-03-04T10:31:29;96910.44;;;13.36;85.24
3668;BME280;24099;47.102;15.440;2023-03-04T10:33:58;96906.19;;;13.16;85.25
3668;BME280;24099;47.102;15.440;2023-03-04T10:36:38;96912.19;;;12.37;89.84
3668;BME280;24099;47.102;15.440;2023-03-04T10:39:15;96900.47;;;12.92;85.07
3668;BME280;24099;47.102;15.440;2023-03-04T10:41:52;96907.19;;;13.21;83.92
3668;BME280;24099;47.102;15.440;2023-03-04T10:44:21;96899.44;;;13.20;81.25
3668;BME280;24099;47.102;15.440;2023-03-04T10:46:53;96885.84;;;13.29;83.47
3668;BME280;24099;47.102;15.440;2023-03-04T10:49:22;96886.88;;;13.93;78.62
3668;BME280;24099;47.102;15.440;2023-03-04T10:51:53;96884.59;;;14.03;77.71
3668;BME280;24099;47.102;15.440;2023-03-04T10:54:26;96886.22;;;14.48;74.43
3668;BME280;24099;47.102;15.440;2023-03-04T10:57:02;96879.66;;;13.62;74.86
3668;BME280;24099;47.102;15.440;2023-03-04T10:59:43;96874.19;;;14.39;71.69
3668;BME280;24099;47.102;15.440;2023-03-04T11:02:28;96870.81;;;14.95;68.49
3668;BME280;24099;47.102;15.440;2023-03-04T11:05:10;96871.84;;;14.94;70.02
3668;BME280;24099;47.102;15.440;2023-03-04T11:07:44;96866.97;;;14.91;65.06
3668;BME280;24099;47.102;15.440;2023-03-04T11:10:21;96862.03;;;14.95;65.02
3668;BME280;24099;47.102;15.440;2023-03-04T11:12:58;96867.94;;;14.97;64.43
3668;BME280;24099;47.102;15.440;2023-03-04T11:15:28;96857.56;;;14.32;63.62
3668;BME280;24099;47.102;15.440;2023-03-04T11:18:00;96861.53;;;13.72;65.76
3668;BME280;24099;47.102;15.440;2023-03-04T11:20:32;96860.66;;;13.85;67.47
3668;BME280;24099;47.102;15.440;2023-03-04T11:23:27;96849.56;;;14.77;66.76
3668;BME280;24099;47.102;15.440;2023-03-04T11:26:00;96835.34;;;15.76;62.66
3668;BME280;24099;47.102;15.440;2023-03-04T11:28:35;96841.16;;;15.23;60.23
3668;BME280;24099;47.102;15.440;2023-03-04T11:31:13;96838.34;;;14.75;60.65
3668;BME280;24099;47.102;15.440;2023-03-04T11:33:48;96830.94;;;15.45;62.19
3668;BME280;24099;47.102;15.440;2023-03-04T11:36:31;96825.38;;;15.71;57.63
3668;BME280;24099;47.102;15.440;2023-03-04T11:39:07;96827.59;;;16.04;59.01
3668;BME280;24099;47.102;15.440;2023-03-04T11:41:43;96823.38;;;15.48;57.43
3668;BME280;24099;47.102;15.440;2023-03-04T11:44:14;96819.97;;;15.23;58.09
3668;BME280;24099;47.102;15.440;2023-03-04T11:47:01;96819.81;;;14.75;58.31
3668;BME280;24099;47.102;15.440;2023-03-04T11:55:56;96801.41;;;16.08;54.24
3668;BME280;24099;47.102;15.440;2023-03-04T11:58:44;96801.88;;;16.05;55.38
3668;BME280;24099;47.102;15.440;2023-03-04T12:01:19;96804.09;;;16.19;55.64
3668;BME280;24099;47.102;15.440;2023-03-04T12:04:17;96802.25;;;16.62;53.63
3668;BME280;24099;47.102;15.440;2023-03-04T12:07:04;96800.34;;;16.69;53.55
3668;BME280;24099;47.102;15.440;2023-03-04T12:09:48;96792.78;;;15.46;54.30
3668;BME280;24099;47.102;15.440;2023-03-04T12:12:33;96789.25;;;16.18;55.23
3668;BME280;24099;47.102;15.440;2023-03-04T12:15:16;96782.53;;;16.81;52.36
3668;BME280;24099;47.102;15.440;2023-03-04T12:18:04;96778.25;;;17.03;51.29
3668;BME280;24099;47.102;15.440;2023-03-04T12:20:45;96785.09;;;15.01;54.10
3668;BME280;24099;47.102;15.440;2023-03-04T12:23:32;96779.66;;;15.88;54.06
3668;BME280;24099;47.102;15.440;2023-03-04T12:26:20;96770.38;;;15.42;54.70
3668;BME280;24099;47.102;15.440;2023-03-04T12:28:57;96773.25;;;16.48;51.62
3668;BME280;24099;47.102;15.440;2023-03-04T12:31:36;96767.84;;;17.02;51.29
3668;BME280;24099;47.102;15.440;2023-03-04T12:34:45;96767.59;;;15.73;51.03
3668;BME280;24099;47.102;15.440;2023-03-04T12:37:38;96760.84;;;16.42;53.10
3668;BME280;24099;47.102;15.440;2023-03-04T12:40:31;96762.09;;;15.87;50.63
3668;BME280;24099;47.102;15.440;2023-03-04T12:43:19;96759.13;;;15.95;52.03
3668;BME280;24099;47.102;15.440;2023-03-04T12:46:01;96748.00;;;15.74;52.42
3668;BME280;24099;47.102;15.440;2023-03-04T12:48:35;96744.38;;;16.52;50.94
3668;BME280;24099;47.102;15.440;2023-03-04T12:51:16;96742.31;;;17.01;48.59
3668;BME280;24099;47.102;15.440;2023-03-04T12:53:57;96731.22;;;16.57;49.94
3668;BME280;24099;47.102;15.440;2023-03-04T12:56:34;96738.22;;;16.28;49.77
3668;BME280;24099;47.102;15.440;2023-03-04T12:59:17;96733.53;;;16.65;49.59
3668;BME280;24099;47.102;15.440;2023-03-04T13:01:55;96730.88;;;16.88;47.98
3668;BME280;24099;47.102;15.440;2023-03-04T13:04:29;96733.88;;;16.57;48.93
3668;BME280;24099;47.102;15.440;2023-03-04T13:07:13;96723.41;;;16.09;50.68
3668;BME280;24099;47.102;15.440;2023-03-04T13:09:51;96729.97;;;16.71;51.12
3668;BME280;24099;47.102;15.440;2023-03-04T13:12:24;96727.00;;;15.84;50.11
3668;BME280;24099;47.102;15.440;2023-03-04T13:15:25;96721.00;;;16.31;51.00
3668;BME280;24099;47.102;15.440;2023-03-04T13:17:55;96715.25;;;16.34;49.94
3668;BME280;24099;47.102;15.440;2023-03-04T13:20:35;96717.13;;;15.92;49.93
3668;BME280;24099;47.102;15.440;2023-03-04T13:26:18;96718.63;;;14.41;51.51
3668;BME280;24099;47.102;15.440;2023-03-04T13:29:29;96704.56;;;15.57;50.08
3668;BME280;24099;47.102;15.440;2023-03-04T13:32:00;96702.31;;;15.84;48.91
3668;BME280;24099;47.102;15.440;2023-03-04T13:34:45;96697.88;;;16.08;50.52
3668;BME280;24099;47.102;15.440;2023-03-04T13:37:29;96694.72;;;15.88;51.01
3668;BME280;24099;47.102;15.440;2023-03-04T13:43:23;96682.25;;;15.76;49.00
3668;BME280;24099;47.102;15.440;2023-03-04T13:45:53;96683.97;;;15.82;49.30
3668;BME280;24099;47.102;15.440;2023-03-04T13:48:29;96683.81;;;15.66;48.21
3668;BME280;24099;47.102;15.440;2023-03-04T13:50:57;96677.47;;;15.00;50.62
3668;BME280;24099;47.102;15.440;2023-03-04T13:53:42;96675.25;;;15.15;51.02